Terminal Aerodrome Forecast
Issued by NWS

Home | Current Version | Previous Version | Text Only | Print | Product List | Glossary Off
Versions: 1 2 3 4 5 6 7 8 9 10 11 12 13 14 15 16 17 18 19 20 21 22 23 24 25 26 27 28 29 30 31 32 33 34 35

000
FTUS43 KLOT 161100
TAFORD
TAF
KORD 161137Z 1612/1718 28004KT 1SM -SHRA BR OVC003
      TEMPO 1612/1614 1/2SM FG VV002
     FM161400 31008KT 2SM -SHRA BR OVC004
     FM161700 29012KT 6SM BR VCSH OVC009
     FM161900 31016G25KT P6SM OVC012
     FM170100 30015G22KT P6SM OVC025
     FM170800 29012KT P6SM BKN030=

USA.gov is the U.S. government's official web portal to all federal, state and local government web resources and services.